sensor_id;sensor_type;location;lat;lon;timestamp;temperature;humidity
33428;DHT22;19769;48.150;16.306;2023-05-10T00:00:07;12.60;99.90
33428;DHT22;19769;48.150;16.306;2023-05-10T00:02:38;12.20;99.90
33428;DHT22;19769;48.150;16.306;2023-05-10T00:05:04;12.20;99.90
33428;DHT22;19769;48.150;16.306;2023-05-10T00:07:30;12.20;99.90
33428;DHT22;19769;48.150;16.306;2023-05-10T00:09:56;12.10;99.90
33428;DHT22;19769;48.150;16.306;2023-05-10T00:12:22;12.10;99.90
33428;DHT22;19769;48.150;16.306;2023-05-10T00:14:47;12.20;99.90
33428;DHT22;19769;48.150;16.306;2023-05-10T00:17:13;12.10;99.90
33428;DHT22;19769;48.150;16.306;2023-05-10T00:19:39;12.10;99.90
33428;DHT22;19769;48.150;16.306;2023-05-10T00:22:04;12.10;99.90
33428;DHT22;19769;48.150;16.306;2023-05-10T00:24:30;12.00;99.90
33428;DHT22;19769;48.150;16.306;2023-05-10T00:26:56;12.20;99.90
33428;DHT22;19769;48.150;16.306;2023-05-10T00:29:21;12.00;99.90
33428;DHT22;19769;48.150;16.306;2023-05-10T00:31:47;12.10;99.90
33428;DHT22;19769;48.150;16.306;2023-05-10T00:34:13;12.00;99.90
33428;DHT22;19769;48.150;16.306;2023-05-10T00:36:38;12.00;99.90
33428;DHT22;19769;48.150;16.306;2023-05-10T00:39:06;12.00;99.90
33428;DHT22;19769;48.150;16.306;2023-05-10T00:41:31;12.00;99.90
33428;DHT22;19769;48.150;16.306;2023-05-10T00:43:59;12.10;99.90
33428;DHT22;19769;48.150;16.306;2023-05-10T00:46:26;12.00;99.90
33428;DHT22;19769;48.150;16.306;2023-05-10T00:48:52;12.00;99.90
33428;DHT22;19769;48.150;16.306;2023-05-10T00:51:18;12.00;99.90
33428;DHT22;19769;48.150;16.306;2023-05-10T00:53:44;12.00;99.90
33428;DHT22;19769;48.150;16.306;2023-05-10T00:56:11;12.00;99.90
33428;DHT22;19769;48.150;16.306;2023-05-10T00:58:37;11.90;99.90
33428;DHT22;19769;48.150;16.306;2023-05-10T01:01:04;11.80;99.90
33428;DHT22;19769;48.150;16.306;2023-05-10T01:03:30;11.90;99.90
33428;DHT22;19769;48.150;16.306;2023-05-10T01:05:56;11.80;99.90
33428;DHT22;19769;48.150;16.306;2023-05-10T01:08:21;11.90;99.90
33428;DHT22;19769;48.150;16.306;2023-05-10T01:10:47;12.00;99.90
33428;DHT22;19769;48.150;16.306;2023-05-10T01:13:17;11.70;99.90
33428;DHT22;19769;48.150;16.306;2023-05-10T01:15:44;11.70;99.90
33428;DHT22;19769;48.150;16.306;2023-05-10T01:18:11;11.70;99.90
33428;DHT22;19769;48.150;16.306;2023-05-10T01:20:39;11.70;99.90
33428;DHT22;19769;48.150;16.306;2023-05-10T01:35:35;11.50;99.90
33428;DHT22;19769;48.150;16.306;2023-05-10T01:43:17;11.60;99.90
33428;DHT22;19769;48.150;16.306;2023-05-10T01:45:47;11.60;99.90
33428;DHT22;19769;48.150;16.306;2023-05-10T01:48:15;11.60;99.90
33428;DHT22;19769;48.150;16.306;2023-05-10T01:50:44;11.60;99.90
33428;DHT22;19769;48.150;16.306;2023-05-10T01:53:11;11.60;99.90
33428;DHT22;19769;48.150;16.306;2023-05-10T01:55:44;11.60;99.90
33428;DHT22;19769;48.150;16.306;2023-05-10T01:58:13;11.60;99.90
33428;DHT22;19769;48.150;16.306;2023-05-10T02:00:43;12.20;99.90
33428;DHT22;19769;48.150;16.306;2023-05-10T02:03:10;11.50;99.90
33428;DHT22;19769;48.150;16.306;2023-05-10T02:05:36;11.50;99.90
33428;DHT22;19769;48.150;16.306;2023-05-10T02:08:03;11.60;99.90
33428;DHT22;19769;48.150;16.306;2023-05-10T02:10:30;11.50;99.90
33428;DHT22;19769;48.150;16.306;2023-05-10T02:12:58;12.50;99.90
33428;DHT22;19769;48.150;16.306;2023-05-10T02:15:24;11.90;99.90
33428;DHT22;19769;48.150;16.306;2023-05-10T02:17:50;12.50;99.90
33428;DHT22;19769;48.150;16.306;2023-05-10T02:20:17;13.00;99.90
33428;DHT22;19769;48.150;16.306;2023-05-10T02:22:44;11.40;99.90
33428;DHT22;19769;48.150;16.306;2023-05-10T02:25:12;11.30;99.90
33428;DHT22;19769;48.150;16.306;2023-05-10T02:27:39;12.30;99.90
33428;DHT22;19769;48.150;16.306;2023-05-10T02:30:07;12.20;99.90
33428;DHT22;19769;48.150;16.306;2023-05-10T02:32:33;11.30;99.90
33428;DHT22;19769;48.150;16.306;2023-05-10T02:35:00;11.30;99.90
33428;DHT22;19769;48.150;16.306;2023-05-10T02:37:26;11.30;99.90
33428;DHT22;19769;48.150;16.306;2023-05-10T02:39:53;11.20;99.90
33428;DHT22;19769;48.150;16.306;2023-05-10T02:42:22;11.20;99.90
33428;DHT22;19769;48.150;16.306;2023-05-10T02:44:50;11.40;99.90
33428;DHT22;19769;48.150;16.306;2023-05-10T02:47:16;11.30;99.90
33428;DHT22;19769;48.150;16.306;2023-05-10T02:49:43;11.40;99.90
33428;DHT22;19769;48.150;16.306;2023-05-10T02:52:08;11.30;99.90
33428;DHT22;19769;48.150;16.306;2023-05-10T02:54:39;11.20;99.90
33428;DHT22;19769;48.150;16.306;2023-05-10T02:57:06;11.50;99.90
33428;DHT22;19769;48.150;16.306;2023-05-10T02:59:32;11.20;99.90
33428;DHT22;19769;48.150;16.306;2023-05-10T03:01:59;11.20;99.90
33428;DHT22;19769;48.150;16.306;2023-05-10T03:04:25;11.20;99.90
33428;DHT22;19769;48.150;16.306;2023-05-10T03:06:53;11.50;99.90
33428;DHT22;19769;48.150;16.306;2023-05-10T03:09:20;11.00;99.90
33428;DHT22;19769;48.150;16.306;2023-05-10T03:16:58;11.00;99.90
33428;DHT22;19769;48.150;16.306;2023-05-10T03:19:27;11.00;99.90
33428;DHT22;19769;48.150;16.306;2023-05-10T03:21:55;11.10;99.90
33428;DHT22;19769;48.150;16.306;2023-05-10T03:24:24;11.40;99.90
33428;DHT22;19769;48.150;16.306;2023-05-10T03:26:52;10.90;99.90
33428;DHT22;19769;48.150;16.306;2023-05-10T03:29:20;11.70;99.90
33428;DHT22;19769;48.150;16.306;2023-05-10T03:31:46;11.00;99.90
33428;DHT22;19769;48.150;16.306;2023-05-10T03:34:13;11.00;99.90
33428;DHT22;19769;48.150;16.306;2023-05-10T03:36:39;11.40;99.90
33428;DHT22;19769;48.150;16.306;2023-05-10T03:39:05;11.00;99.90
33428;DHT22;19769;48.150;16.306;2023-05-10T03:41:30;11.10;99.90
33428;DHT22;19769;48.150;16.306;2023-05-10T03:43:56;11.00;99.90
33428;DHT22;19769;48.150;16.306;2023-05-10T03:46:22;11.00;99.90
33428;DHT22;19769;48.150;16.306;2023-05-10T03:48:48;11.50;99.90
33428;DHT22;19769;48.150;16.306;2023-05-10T03:51:13;11.10;99.90
33428;DHT22;19769;48.150;16.306;2023-05-10T03:53:39;11.10;99.90
33428;DHT22;19769;48.150;16.306;2023-05-10T03:56:05;11.60;99.90
33428;DHT22;19769;48.150;16.306;2023-05-10T03:58:30;11.10;99.90
33428;DHT22;19769;48.150;16.306;2023-05-10T04:00:57;11.00;99.90
33428;DHT22;19769;48.150;16.306;2023-05-10T04:03:23;11.10;99.90
33428;DHT22;19769;48.150;16.306;2023-05-10T04:05:48;11.00;99.90
33428;DHT22;19769;48.150;16.306;2023-05-10T04:08:14;11.00;99.90
33428;DHT22;19769;48.150;16.306;2023-05-10T04:10:41;11.10;99.90
33428;DHT22;19769;48.150;16.306;2023-05-10T04:13:07;11.10;99.90
33428;DHT22;19769;48.150;16.306;2023-05-10T04:15:33;11.00;99.90
33428;DHT22;19769;48.150;16.306;2023-05-10T04:20:40;10.40;99.90
33428;DHT22;19769;48.150;16.306;2023-05-10T04:23:22;11.30;99.90
33428;DHT22;19769;48.150;16.306;2023-05-10T04:26:05;10.90;99.90
33428;DHT22;19769;48.150;16.306;2023-05-10T04:28:37;11.10;99.90
33428;DHT22;19769;48.150;16.306;2023-05-10T04:31:10;11.20;99.90
33428;DHT22;19769;48.150;16.306;2023-05-10T04:33:37;12.50;99.90
33428;DHT22;19769;48.150;16.306;2023-05-10T04:36:03;11.40;99.90
33428;DHT22;19769;48.150;16.306;2023-05-10T04:38:29;11.40;99.90
33428;DHT22;19769;48.150;16.306;2023-05-10T04:41:03;11.50;99.90
33428;DHT22;19769;48.150;16.306;2023-05-10T04:43:31;11.50;99.90
33428;DHT22;19769;48.150;16.306;2023-05-10T04:45:58;11.50;99.90
33428;DHT22;19769;48.150;16.306;2023-05-10T04:48:37;11.60;99.90
33428;DHT22;19769;48.150;16.306;2023-05-10T04:51:03;12.20;99.90
33428;DHT22;19769;48.150;16.306;2023-05-10T04:53:29;11.80;99.90
33428;DHT22;19769;48.150;16.306;2023-05-10T04:55:55;12.50;99.90
33428;DHT22;19769;48.150;16.306;2023-05-10T04:58:21;12.00;99.90
33428;DHT22;19769;48.150;16.306;2023-05-10T05:01:03;12.00;99.90
33428;DHT22;19769;48.150;16.306;2023-05-10T05:03:46;12.00;99.90
33428;DHT22;19769;48.150;16.306;2023-05-10T05:06:19;12.10;99.90
33428;DHT22;19769;48.150;16.306;2023-05-10T05:12:06;11.20;99.90
33428;DHT22;19769;48.150;16.306;2023-05-10T05:14:56;12.40;99.90
33428;DHT22;19769;48.150;16.306;2023-05-10T05:17:34;12.50;99.90
33428;DHT22;19769;48.150;16.306;2023-05-10T05:20:09;12.60;99.90
33428;DHT22;19769;48.150;16.306;2023-05-10T05:22:50;12.70;99.90
33428;DHT22;19769;48.150;16.306;2023-05-10T05:25:48;12.80;99.90
33428;DHT22;19769;48.150;16.306;2023-05-10T05:28:38;12.90;99.90
33428;DHT22;19769;48.150;16.306;2023-05-10T05:31:39;12.00;99.90
33428;DHT22;19769;48.150;16.306;2023-05-10T05:34:12;12.90;99.90
33428;DHT22;19769;48.150;16.306;2023-05-10T05:36:41;11.90;99.90
33428;DHT22;19769;48.150;16.306;2023-05-10T05:39:06;13.30;99.90
33428;DHT22;19769;48.150;16.306;2023-05-10T05:41:32;13.50;99.90
33428;DHT22;19769;48.150;16.306;2023-05-10T05:43:58;13.60;99.90
33428;DHT22;19769;48.150;16.306;2023-05-10T05:46:24;13.70;99.90
33428;DHT22;19769;48.150;16.306;2023-05-10T05:48:53;13.80;99.90
33428;DHT22;19769;48.150;16.306;2023-05-10T05:51:19;14.20;99.90
33428;DHT22;19769;48.150;16.306;2023-05-10T05:53:46;14.00;99.90
33428;DHT22;19769;48.150;16.306;2023-05-10T05:56:13;14.10;99.90
33428;DHT22;19769;48.150;16.306;2023-05-10T05:58:42;14.40;99.90
33428;DHT22;19769;48.150;16.306;2023-05-10T06:01:10;14.50;99.90
33428;DHT22;19769;48.150;16.306;2023-05-10T06:03:36;14.60;99.90
33428;DHT22;19769;48.150;16.306;2023-05-10T06:09:35;14.60;99.90
33428;DHT22;19769;48.150;16.306;2023-05-10T06:12:19;14.80;99.90
33428;DHT22;19769;48.150;16.306;2023-05-10T06:14:47;15.00;99.90
33428;DHT22;19769;48.150;16.306;2023-05-10T06:17:33;15.10;99.90
33428;DHT22;19769;48.150;16.306;2023-05-10T06:20:33;14.60;99.90
33428;DHT22;19769;48.150;16.306;2023-05-10T06:23:27;15.40;99.90
33428;DHT22;19769;48.150;16.306;2023-05-10T06:25:56;15.60;99.90
33428;DHT22;19769;48.150;16.306;2023-05-10T06:28:21;15.60;99.90
33428;DHT22;19769;48.150;16.306;2023-05-10T06:30:47;15.70;99.90
33428;DHT22;19769;48.150;16.306;2023-05-10T06:33:15;14.70;99.90
33428;DHT22;19769;48.150;16.306;2023-05-10T06:35:44;15.80;99.90
33428;DHT22;19769;48.150;16.306;2023-05-10T06:38:20;16.00;99.90
33428;DHT22;19769;48.150;16.306;2023-05-10T06:40:46;16.10;99.90
33428;DHT22;19769;48.150;16.306;2023-05-10T06:43:23;16.10;98.90
33428;DHT22;19769;48.150;16.306;2023-05-10T06:45:56;15.30;99.00
33428;DHT22;19769;48.150;16.306;2023-05-10T06:48:27;15.10;98.00
33428;DHT22;19769;48.150;16.306;2023-05-10T06:50:53;16.30;97.80
33428;DHT22;19769;48.150;16.306;2023-05-10T06:53:26;16.40;98.00
33428;DHT22;19769;48.150;16.306;2023-05-10T06:55:58;16.40;97.30
33428;DHT22;19769;48.150;16.306;2023-05-10T06:58:30;16.50;97.40
33428;DHT22;19769;48.150;16.306;2023-05-10T07:01:08;16.60;97.20
33428;DHT22;19769;48.150;16.306;2023-05-10T07:03:34;16.70;96.90
33428;DHT22;19769;48.150;16.306;2023-05-10T07:06:01;16.80;95.80
33428;DHT22;19769;48.150;16.306;2023-05-10T07:08:28;16.90;94.60
33428;DHT22;19769;48.150;16.306;2023-05-10T07:10:59;16.90;94.70
33428;DHT22;19769;48.150;16.306;2023-05-10T07:13:25;16.90;94.10
33428;DHT22;19769;48.150;16.306;2023-05-10T07:15:51;17.10;93.20
33428;DHT22;19769;48.150;16.306;2023-05-10T07:18:16;17.30;93.20
33428;DHT22;19769;48.150;16.306;2023-05-10T07:20:42;17.30;92.50
33428;DHT22;19769;48.150;16.306;2023-05-10T07:23:07;17.30;92.20
33428;DHT22;19769;48.150;16.306;2023-05-10T07:25:33;17.40;91.20
33428;DHT22;19769;48.150;16.306;2023-05-10T07:27:59;17.50;91.30
33428;DHT22;19769;48.150;16.306;2023-05-10T07:30:24;17.50;90.50
33428;DHT22;19769;48.150;16.306;2023-05-10T07:32:50;17.60;92.60
33428;DHT22;19769;48.150;16.306;2023-05-10T07:35:16;17.90;92.30
33428;DHT22;19769;48.150;16.306;2023-05-10T07:37:41;18.00;91.70
33428;DHT22;19769;48.150;16.306;2023-05-10T07:40:07;17.50;91.00
33428;DHT22;19769;48.150;16.306;2023-05-10T07:42:33;18.20;91.30
33428;DHT22;19769;48.150;16.306;2023-05-10T07:44:58;18.30;91.60
33428;DHT22;19769;48.150;16.306;2023-05-10T07:47:24;18.30;91.90
33428;DHT22;19769;48.150;16.306;2023-05-10T07:49:50;18.40;91.90
33428;DHT22;19769;48.150;16.306;2023-05-10T07:52:15;18.40;91.10
33428;DHT22;19769;48.150;16.306;2023-05-10T07:54:41;18.30;91.00
33428;DHT22;19769;48.150;16.306;2023-05-10T07:57:06;18.30;92.10
33428;DHT22;19769;48.150;16.306;2023-05-10T07:59:32;18.40;92.10
33428;DHT22;19769;48.150;16.306;2023-05-10T08:01:58;18.40;92.00
33428;DHT22;19769;48.150;16.306;2023-05-10T08:04:31;18.50;93.20
33428;DHT22;19769;48.150;16.306;2023-05-10T08:07:26;18.60;92.10
33428;DHT22;19769;48.150;16.306;2023-05-10T08:10:07;18.60;92.10
33428;DHT22;19769;48.150;16.306;2023-05-10T08:12:40;18.60;91.20
33428;DHT22;19769;48.150;16.306;2023-05-10T08:15:31;18.70;92.60
33428;DHT22;19769;48.150;16.306;2023-05-10T08:18:05;17.70;90.90
33428;DHT22;19769;48.150;16.306;2023-05-10T08:20:45;18.70;91.00
33428;DHT22;19769;48.150;16.306;2023-05-10T08:23:14;19.00;91.30
33428;DHT22;19769;48.150;16.306;2023-05-10T08:25:40;19.00;90.20
33428;DHT22;19769;48.150;16.306;2023-05-10T08:28:05;19.00;90.20
33428;DHT22;19769;48.150;16.306;2023-05-10T08:30:33;19.10;89.00
33428;DHT22;19769;48.150;16.306;2023-05-10T08:33:28;19.20;89.30
33428;DHT22;19769;48.150;16.306;2023-05-10T08:36:11;19.40;87.00
33428;DHT22;19769;48.150;16.306;2023-05-10T08:38:55;19.60;85.80
33428;DHT22;19769;48.150;16.306;2023-05-10T08:41:24;19.50;85.00
33428;DHT22;19769;48.150;16.306;2023-05-10T08:43:51;18.60;85.20
33428;DHT22;19769;48.150;16.306;2023-05-10T08:46:18;19.80;85.10
33428;DHT22;19769;48.150;16.306;2023-05-10T08:48:44;19.80;83.80
33428;DHT22;19769;48.150;16.306;2023-05-10T08:51:10;20.00;82.80
33428;DHT22;19769;48.150;16.306;2023-05-10T08:53:38;20.00;80.90
33428;DHT22;19769;48.150;16.306;2023-05-10T08:56:05;20.10;80.90
33428;DHT22;19769;48.150;16.306;2023-05-10T08:58:31;20.30;79.70
33428;DHT22;19769;48.150;16.306;2023-05-10T09:00:57;20.20;79.00
33428;DHT22;19769;48.150;16.306;2023-05-10T09:03:23;20.00;77.90
33428;DHT22;19769;48.150;16.306;2023-05-10T09:05:50;19.90;79.90
33428;DHT22;19769;48.150;16.306;2023-05-10T09:08:16;18.80;80.10
33428;DHT22;19769;48.150;16.306;2023-05-10T09:10:45;19.70;80.20
33428;DHT22;19769;48.150;16.306;2023-05-10T09:13:13;19.50;81.60
33428;DHT22;19769;48.150;16.306;2023-05-10T09:15:39;19.40;82.30
33428;DHT22;19769;48.150;16.306;2023-05-10T09:18:05;19.20;82.10
33428;DHT22;19769;48.150;16.306;2023-05-10T09:20:32;19.10;82.40
33428;DHT22;19769;48.150;16.306;2023-05-10T09:22:58;19.00;82.20
33428;DHT22;19769;48.150;16.306;2023-05-10T09:25:24;19.00;82.40
33428;DHT22;19769;48.150;16.306;2023-05-10T09:31:09;19.50;81.80
33428;DHT22;19769;48.150;16.306;2023-05-10T09:33:47;19.20;83.20
33428;DHT22;19769;48.150;16.306;2023-05-10T09:36:19;19.20;81.70
33428;DHT22;19769;48.150;16.306;2023-05-10T09:39:38;18.10;81.90
33428;DHT22;19769;48.150;16.306;2023-05-10T09:42:18;20.00;82.50
33428;DHT22;19769;48.150;16.306;2023-05-10T09:45:13;19.30;82.80
33428;DHT22;19769;48.150;16.306;2023-05-10T09:47:54;19.30;81.20
33428;DHT22;19769;48.150;16.306;2023-05-10T09:50:44;19.20;79.50
33428;DHT22;19769;48.150;16.306;2023-05-10T09:53:44;19.40;79.00
33428;DHT22;19769;48.150;16.306;2023-05-10T09:56:33;19.40;76.50
33428;DHT22;19769;48.150;16.306;2023-05-10T09:59:42;19.50;79.70
33428;DHT22;19769;48.150;16.306;2023-05-10T10:02:35;19.90;80.10
33428;DHT22;19769;48.150;16.306;2023-05-10T10:07:53;21.40;75.80
33428;DHT22;19769;48.150;16.306;2023-05-10T10:10:23;18.90;72.20
33428;DHT22;19769;48.150;16.306;2023-05-10T10:12:58;20.60;73.60
33428;DHT22;19769;48.150;16.306;2023-05-10T10:15:34;20.70;72.00
33428;DHT22;19769;48.150;16.306;2023-05-10T10:18:11;21.30;69.90
33428;DHT22;19769;48.150;16.306;2023-05-10T10:20:48;21.70;72.50
33428;DHT22;19769;48.150;16.306;2023-05-10T10:23:22;22.00;69.50
33428;DHT22;19769;48.150;16.306;2023-05-10T10:26:02;22.10;67.60
33428;DHT22;19769;48.150;16.306;2023-05-10T10:30:56;22.30;66.90
33428;DHT22;19769;48.150;16.306;2023-05-10T10:35:55;22.90;64.00
33428;DHT22;19769;48.150;16.306;2023-05-10T10:38:23;23.30;63.60
33428;DHT22;19769;48.150;16.306;2023-05-10T10:40:48;23.60;60.40
33428;DHT22;19769;48.150;16.306;2023-05-10T10:43:27;23.30;58.70
33428;DHT22;19769;48.150;16.306;2023-05-10T10:48:38;23.60;58.40
33428;DHT22;19769;48.150;16.306;2023-05-10T10:51:03;23.30;58.20
33428;DHT22;19769;48.150;16.306;2023-05-10T10:53:29;22.90;59.90
33428;DHT22;19769;48.150;16.306;2023-05-10T10:56:28;22.80;60.00
33428;DHT22;19769;48.150;16.306;2023-05-10T10:58:49;22.70;60.10
33428;DHT22;19769;48.150;16.306;2023-05-10T11:01:19;22.70;61.30
33428;DHT22;19769;48.150;16.306;2023-05-10T11:04:27;22.60;59.90
33428;DHT22;19769;48.150;16.306;2023-05-10T11:06:34;22.50;60.80
33428;DHT22;19769;48.150;16.306;2023-05-10T11:11:32;22.50;59.40
33428;DHT22;19769;48.150;16.306;2023-05-10T11:14:06;22.40;59.50
33428;DHT22;19769;48.150;16.306;2023-05-10T11:16:41;22.50;60.00
33428;DHT22;19769;48.150;16.306;2023-05-10T11:19:10;22.30;60.70
33428;DHT22;19769;48.150;16.306;2023-05-10T11:21:44;22.00;60.70
33428;DHT22;19769;48.150;16.306;2023-05-10T11:24:13;21.70;61.10
33428;DHT22;19769;48.150;16.306;2023-05-10T11:26:39;21.60;61.50
33428;DHT22;19769;48.150;16.306;2023-05-10T11:29:05;21.70;62.10
33428;DHT22;19769;48.150;16.306;2023-05-10T11:31:31;21.70;60.80
33428;DHT22;19769;48.150;16.306;2023-05-10T11:33:57;21.80;61.20
33428;DHT22;19769;48.150;16.306;2023-05-10T11:36:24;21.90;60.30
33428;DHT22;19769;48.150;16.306;2023-05-10T12:38:43;22.70;58.10
33428;DHT22;19769;48.150;16.306;2023-05-10T12:41:30;23.10;57.30
33428;DHT22;19769;48.150;16.306;2023-05-10T12:47:07;22.30;58.20
33428;DHT22;19769;48.150;16.306;2023-05-10T13:03:30;23.00;57.30
33428;DHT22;19769;48.150;16.306;2023-05-10T13:08:51;22.00;57.40
33428;DHT22;19769;48.150;16.306;2023-05-10T13:11:17;21.70;59.20
33428;DHT22;19769;48.150;16.306;2023-05-10T13:13:45;21.60;58.70
33428;DHT22;19769;48.150;16.306;2023-05-10T13:16:10;21.50;60.00
33428;DHT22;19769;48.150;16.306;2023-05-10T13:18:36;21.60;61.10
33428;DHT22;19769;48.150;16.306;2023-05-10T13:21:02;21.50;60.20
33428;DHT22;19769;48.150;16.306;2023-05-10T13:26:48;21.50;61.20
33428;DHT22;19769;48.150;16.306;2023-05-10T13:29:14;21.30;61.20
33428;DHT22;19769;48.150;16.306;2023-05-10T13:31:42;21.30;62.20
33428;DHT22;19769;48.150;16.306;2023-05-10T13:37:29;20.60;58.10
33428;DHT22;19769;48.150;16.306;2023-05-10T13:40:32;21.60;58.90
33428;DHT22;19769;48.150;16.306;2023-05-10T13:45:58;21.00;59.60
33428;DHT22;19769;48.150;16.306;2023-05-10T13:49:06;22.10;61.50
33428;DHT22;19769;48.150;16.306;2023-05-10T13:51:32;21.30;61.30
33428;DHT22;19769;48.150;16.306;2023-05-10T13:53:58;21.40;59.90
33428;DHT22;19769;48.150;16.306;2023-05-10T13:59:52;22.10;61.10
33428;DHT22;19769;48.150;16.306;2023-05-10T14:02:18;21.10;61.10
33428;DHT22;19769;48.150;16.306;2023-05-10T14:04:44;21.00;60.20
33428;DHT22;19769;48.150;16.306;2023-05-10T14:10:37;20.90;61.30
33428;DHT22;19769;48.150;16.306;2023-05-10T14:13:31;19.70;61.60
33428;DHT22;19769;48.150;16.306;2023-05-10T14:17:11;19.90;61.00
33428;DHT22;19769;48.150;16.306;2023-05-10T14:19:47;20.90;61.50
33428;DHT22;19769;48.150;16.306;2023-05-10T14:22:16;20.40;61.90
33428;DHT22;19769;48.150;16.306;2023-05-10T14:28:19;21.00;61.20
33428;DHT22;19769;48.150;16.306;2023-05-10T14:30:54;20.60;59.60
33428;DHT22;19769;48.150;16.306;2023-05-10T14:33:20;20.30;59.00
33428;DHT22;19769;48.150;16.306;2023-05-10T14:35:46;20.60;59.60
33428;DHT22;19769;48.150;16.306;2023-05-10T14:38:12;20.40;58.30
33428;DHT22;19769;48.150;16.306;2023-05-10T14:40:38;20.30;58.40
33428;DHT22;19769;48.150;16.306;2023-05-10T14:43:04;20.30;59.30
33428;DHT22;19769;48.150;16.306;2023-05-10T14:45:29;20.20;59.70
33428;DHT22;19769;48.150;16.306;2023-05-10T14:47:56;20.30;60.00
33428;DHT22;19769;48.150;16.306;2023-05-10T14:57:29;20.70;57.60
33428;DHT22;19769;48.150;16.306;2023-05-10T14:59:55;20.70;58.20
33428;DHT22;19769;48.150;16.306;2023-05-10T15:02:21;20.70;59.20
33428;DHT22;19769;48.150;16.306;2023-05-10T15:04:47;20.80;58.50
33428;DHT22;19769;48.150;16.306;2023-05-10T15:07:20;20.80;58.10
33428;DHT22;19769;48.150;16.306;2023-05-10T15:09:46;20.70;58.30
33428;DHT22;19769;48.150;16.306;2023-05-10T15:12:13;20.70;58.40
33428;DHT22;19769;48.150;16.306;2023-05-10T15:14:38;20.70;59.20
33428;DHT22;19769;48.150;16.306;2023-05-10T15:17:05;20.60;58.90
33428;DHT22;19769;48.150;16.306;2023-05-10T15:19:31;20.60;58.40
33428;DHT22;19769;48.150;16.306;2023-05-10T15:22:05;20.50;58.60
33428;DHT22;19769;48.150;16.306;2023-05-10T15:24:31;20.40;59.20
33428;DHT22;19769;48.150;16.306;2023-05-10T15:26:57;20.40;59.90
33428;DHT22;19769;48.150;16.306;2023-05-10T15:29:22;20.50;59.80
33428;DHT22;19769;48.150;16.306;2023-05-10T15:31:49;20.40;58.90
33428;DHT22;19769;48.150;16.306;2023-05-10T15:34:15;20.30;59.00
33428;DHT22;19769;48.150;16.306;2023-05-10T15:36:41;20.20;59.90
33428;DHT22;19769;48.150;16.306;2023-05-10T15:39:07;20.10;60.00
33428;DHT22;19769;48.150;16.306;2023-05-10T15:41:34;20.00;62.10
33428;DHT22;19769;48.150;16.306;2023-05-10T15:44:00;18.90;61.40
33428;DHT22;19769;48.150;16.306;2023-05-10T15:46:27;19.90;61.50
33428;DHT22;19769;48.150;16.306;2023-05-10T15:48:53;19.90;61.50
33428;DHT22;19769;48.150;16.306;2023-05-10T15:51:19;19.90;62.10
33428;DHT22;19769;48.150;16.306;2023-05-10T15:53:45;19.80;62.40
33428;DHT22;19769;48.150;16.306;2023-05-10T15:56:10;19.90;62.00
33428;DHT22;19769;48.150;16.306;2023-05-10T15:58:39;19.80;61.30
33428;DHT22;19769;48.150;16.306;2023-05-10T16:01:05;19.80;61.50
33428;DHT22;19769;48.150;16.306;2023-05-10T16:03:33;19.80;61.90
33428;DHT22;19769;48.150;16.306;2023-05-10T16:05:59;19.70;62.90
33428;DHT22;19769;48.150;16.306;2023-05-10T16:08:25;19.70;61.60
33428;DHT22;19769;48.150;16.306;2023-05-10T16:10:51;19.50;61.30
33428;DHT22;19769;48.150;16.306;2023-05-10T16:13:17;19.50;62.00
33428;DHT22;19769;48.150;16.306;2023-05-10T16:15:42;19.40;62.00
33428;DHT22;19769;48.150;16.306;2023-05-10T16:18:09;19.40;62.70
33428;DHT22;19769;48.150;16.306;2023-05-10T16:20:35;19.50;61.70
33428;DHT22;19769;48.150;16.306;2023-05-10T16:23:04;19.50;61.40
33428;DHT22;19769;48.150;16.306;2023-05-10T16:25:31;19.60;61.30
33428;DHT22;19769;48.150;16.306;2023-05-10T16:27:57;19.70;61.90
33428;DHT22;19769;48.150;16.306;2023-05-10T16:30:23;19.70;61.70
33428;DHT22;19769;48.150;16.306;2023-05-10T16:32:54;19.70;61.60
33428;DHT22;19769;48.150;16.306;2023-05-10T16:35:19;19.70;61.90
33428;DHT22;19769;48.150;16.306;2023-05-10T16:37:47;19.60;61.60
33428;DHT22;19769;48.150;16.306;2023-05-10T16:40:12;19.60;61.80
33428;DHT22;19769;48.150;16.306;2023-05-10T16:42:39;19.50;61.90
33428;DHT22;19769;48.150;16.306;2023-05-10T16:45:05;19.40;62.00
33428;DHT22;19769;48.150;16.306;2023-05-10T16:47:37;19.40;62.50
33428;DHT22;19769;48.150;16.306;2023-05-10T16:50:03;19.30;61.60
33428;DHT22;19769;48.150;16.306;2023-05-10T16:52:30;19.30;62.90
33428;DHT22;19769;48.150;16.306;2023-05-10T16:54:57;19.20;62.30
33428;DHT22;19769;48.150;16.306;2023-05-10T16:57:22;19.20;62.60
33428;DHT22;19769;48.150;16.306;2023-05-10T16:59:48;19.20;62.70
33428;DHT22;19769;48.150;16.306;2023-05-10T17:02:14;19.60;63.40
33428;DHT22;19769;48.150;16.306;2023-05-10T17:04:43;19.10;63.40
33428;DHT22;19769;48.150;16.306;2023-05-10T17:07:09;19.10;63.30
33428;DHT22;19769;48.150;16.306;2023-05-10T17:09:35;19.10;63.10
33428;DHT22;19769;48.150;16.306;2023-05-10T17:12:00;19.00;64.10
33428;DHT22;19769;48.150;16.306;2023-05-10T17:14:28;18.90;63.70
33428;DHT22;19769;48.150;16.306;2023-05-10T17:19:50;18.90;64.90
33428;DHT22;19769;48.150;16.306;2023-05-10T17:22:18;18.80;65.10
33428;DHT22;19769;48.150;16.306;2023-05-10T17:24:44;18.70;65.30
33428;DHT22;19769;48.150;16.306;2023-05-10T17:27:10;18.60;65.50
33428;DHT22;19769;48.150;16.306;2023-05-10T17:29:38;18.60;65.90
33428;DHT22;19769;48.150;16.306;2023-05-10T17:32:16;18.50;66.90
33428;DHT22;19769;48.150;16.306;2023-05-10T17:34:49;18.50;66.70
33428;DHT22;19769;48.150;16.306;2023-05-10T17:37:15;18.40;67.00
33428;DHT22;19769;48.150;16.306;2023-05-10T17:39:40;18.30;66.90
33428;DHT22;19769;48.150;16.306;2023-05-10T17:42:06;18.30;67.10
33428;DHT22;19769;48.150;16.306;2023-05-10T17:44:32;18.30;67.80
33428;DHT22;19769;48.150;16.306;2023-05-10T17:46:58;18.20;68.70
33428;DHT22;19769;48.150;16.306;2023-05-10T17:49:27;17.10;68.20
33428;DHT22;19769;48.150;16.306;2023-05-10T17:51:53;18.00;69.10
33428;DHT22;19769;48.150;16.306;2023-05-10T17:54:18;19.20;71.30
33428;DHT22;19769;48.150;16.306;2023-05-10T17:56:44;18.00;76.30
33428;DHT22;19769;48.150;16.306;2023-05-10T17:59:10;18.00;73.30
33428;DHT22;19769;48.150;16.306;2023-05-10T18:01:36;18.00;73.70
33428;DHT22;19769;48.150;16.306;2023-05-10T18:04:02;18.00;73.60
33428;DHT22;19769;48.150;16.306;2023-05-10T18:08:58;17.90;71.80
33428;DHT22;19769;48.150;16.306;2023-05-10T18:11:24;17.80;71.20